Time;durP1;ratioP1;P1;durP2;ratioP2;P2;SDS_P1;SDS_P2;PMS_P1;PMS_P2;Temp;Humidity;BMP_temperature;BMP_pressure;BME280_temperature;BME280_humidity;BME280_pressure;Samples;Min_cycle;Max_cycle;Signal;HPM_P1;HPM_P2
2021/12/21 00:01:26;;;;;;;23.77;10.10;;;;;;;6.89;100.00;102667.47;5077408;28;20469;-50
2021/12/21 00:03:51;;;;;;;38.05;10.52;;;;;;;6.98;100.00;102661.44;5060652;28;20032;-49
2021/12/21 00:06:17;;;;;;;23.38;8.80;;;;;;;6.96;100.00;102655.38;5077202;28;20077;-49
2021/12/21 00:08:43;;;;;;;29.02;9.38;;;;;;;6.91;100.00;102668.19;5077085;28;20042;-46
2021/12/21 00:11:09;;;;;;;34.35;11.95;;;;;;;6.84;100.00;102653.72;5095169;28;20036;-51
2021/12/21 00:25:58;;;;;;;16.27;7.03;;;;;;;6.83;100.00;102652.03;5094768;28;20115;-51
2021/12/21 00:28:25;;;;;;;30.67;9.30;;;;;;;6.68;100.00;102649.66;5095149;28;20101;-50
2021/12/21 00:30:51;;;;;;;28.88;9.43;;;;;;;6.59;100.00;102647.75;5076628;28;20462;-47
2021/12/21 00:33:17;;;;;;;31.48;9.63;;;;;;;6.70;100.00;102645.06;5094916;28;20028;-50
2021/12/21 00:35:44;;;;;;;33.03;10.73;;;;;;;6.61;100.00;102648.47;5094714;28;20055;-49
2021/12/21 00:38:09;;;;;;;29.58;10.10;;;;;;;6.56;100.00;102648.84;5076759;28;20028;-50
2021/12/21 00:40:35;;;;;;;33.00;10.10;;;;;;;6.62;100.00;102642.19;5094911;28;20032;-51
2021/12/21 00:43:00;;;;;;;20.63;9.87;;;;;;;6.44;100.00;102637.38;5060356;28;20449;-53
2021/12/21 00:45:26;;;;;;;25.57;9.63;;;;;;;6.35;100.00;102646.09;5077189;28;20081;-53
2021/12/21 00:47:52;;;;;;;21.73;9.20;;;;;;;6.41;100.00;102642.13;5094671;28;20714;-48
2021/12/21 00:50:19;;;;;;;30.15;11.18;;;;;;;6.47;100.00;102646.09;5076357;28;20120;-48
2021/12/21 00:52:51;;;;;;;29.10;10.90;;;;;;;6.53;100.00;102642.94;5036129;28;20071;-50
2021/12/21 00:55:17;;;;;;;28.90;8.80;;;;;;;6.51;100.00;102640.38;5053345;28;20484;-53
2021/12/21 00:57:43;;;;;;;28.52;8.82;;;;;;;6.45;100.00;102641.72;5053180;28;20074;-52
2021/12/21 01:00:11;;;;;;;29.88;10.27;;;;;;;6.29;100.00;102638.63;5054351;28;20033;-51
2021/12/21 01:02:38;;;;;;;30.58;11.75;;;;;;;6.10;100.00;102648.06;5054149;28;20041;-50
2021/12/21 01:05:09;;;;;;;32.53;11.88;;;;;;;6.28;100.00;102644.91;5053454;28;20041;-47
2021/12/21 01:07:40;;;;;;;29.75;11.43;;;;;;;6.29;100.00;102641.28;5053188;28;20119;-50
2021/12/21 01:12:58;;;;;;;34.13;11.10;;;;;;;6.12;100.00;102637.31;5037500;28;20087;-49
2021/12/21 01:18:01;;;;;;;33.83;13.30;;;;;;;6.03;100.00;102629.09;5053916;28;20474;-50
2021/12/21 01:20:39;;;;;;;41.35;12.05;;;;;;;6.18;100.00;102628.84;5052913;28;20041;-51
2021/12/21 01:25:46;;;;;;;26.42;11.75;;;;;;;6.03;100.00;102629.09;5053800;28;20033;-47
2021/12/21 01:35:55;;;;;;;38.17;12.40;;;;;;;5.87;100.00;102621.47;5053395;28;20107;-51
2021/12/21 01:39:00;;;;;;;27.15;12.10;;;;;;;5.86;100.00;102630.38;5053301;28;20455;-49
2021/12/21 01:49:33;;;;;;;29.27;12.30;;;;;;;5.98;100.00;102623.28;5045558;28;20049;-54
2021/12/21 01:49:43;;;;;;;33.13;12.98;;;;;;;5.87;100.00;102624.13;5053797;28;20033;-52
2021/12/21 01:52:13;;;;;;;27.95;10.90;;;;;;;5.87;100.00;102616.16;5084900;28;20517;-50
2021/12/21 01:54:39;;;;;;;32.13;12.05;;;;;;;5.94;100.00;102615.66;5093705;28;20073;-54
2021/12/21 01:57:06;;;;;;;27.45;12.07;;;;;;;5.92;100.00;102622.91;5093732;28;20458;-52
2021/12/21 01:59:33;;;;;;;37.22;12.85;;;;;;;5.89;100.00;102621.34;5094518;28;20048;-53
2021/12/21 02:01:59;;;;;;;39.80;14.75;;;;;;;5.90;100.00;102612.41;5093806;28;20035;-51
2021/12/21 02:04:24;;;;;;;33.00;12.40;;;;;;;5.90;100.00;102612.41;5093658;28;20487;-51
2021/12/21 02:06:52;;;;;;;26.10;10.97;;;;;;;5.88;100.00;102612.53;5075720;28;20039;-53
2021/12/21 02:09:19;;;;;;;32.75;11.80;;;;;;;5.89;100.00;102608.06;5093593;28;20518;-53
2021/12/21 02:11:48;;;;;;;32.65;12.20;;;;;;;5.77;100.00;102599.25;5094183;28;20442;-49
2021/12/21 02:14:15;;;;;;;29.98;10.88;;;;;;;5.71;100.00;102600.56;5093522;28;20111;-50
2021/12/21 02:19:35;;;;;;;32.45;12.80;;;;;;;5.84;100.00;102607.56;5093332;28;20032;-53
2021/12/21 02:22:06;;;;;;;50.15;16.27;;;;;;;5.84;100.00;102600.47;5060646;28;20143;-52
2021/12/21 02:24:40;;;;;;;36.83;14.05;;;;;;;5.66;100.00;102593.94;5093785;28;20115;-52
2021/12/21 02:29:49;;;;;;;32.42;12.07;;;;;;;5.79;100.00;102586.72;5094183;28;20461;-52
2021/12/21 02:32:15;;;;;;;31.10;12.67;;;;;;;5.77;100.00;102588.63;5077645;28;20074;-54
2021/12/21 02:34:44;;;;;;;34.10;13.25;;;;;;;5.72;100.00;102590.78;5095178;28;20288;-55
2021/12/21 02:37:10;;;;;;;39.42;16.40;;;;;;;5.69;100.00;102596.34;5093861;28;20123;-51
2021/12/21 02:39:36;;;;;;;35.70;13.68;;;;;;;5.74;100.00;102589.72;5077552;28;20057;-52
2021/12/21 02:42:03;;;;;;;30.23;12.35;;;;;;;5.59;100.00;102591.75;5079653;28;20040;-49
2021/12/21 02:44:28;;;;;;;29.45;12.52;;;;;;;5.68;100.00;102592.00;5097989;28;20024;-52
2021/12/21 02:46:54;;;;;;;34.43;14.43;;;;;;;5.67;100.00;102592.97;5097308;28;20032;-52
2021/12/21 02:49:19;;;;;;;26.63;11.60;;;;;;;5.65;100.00;102594.91;5097902;28;20099;-52
2021/12/21 02:51:46;;;;;;;31.27;12.27;;;;;;;5.65;100.00;102592.25;5078893;28;20292;-50
2021/12/21 02:54:13;;;;;;;38.47;12.32;;;;;;;5.62;100.00;102584.53;5078906;28;20031;-50
2021/12/21 02:56:40;;;;;;;26.75;11.85;;;;;;;5.59;100.00;102586.44;5097218;28;20141;-53
2021/12/21 02:59:06;;;;;;;29.25;12.55;;;;;;;5.52;100.00;102581.72;5097568;28;20039;-53
2021/12/21 03:01:32;;;;;;;36.47;11.95;;;;;;;5.45;100.00;102574.25;5096971;28;20478;-55
2021/12/21 03:03:58;;;;;;;28.95;11.18;;;;;;;5.52;100.00;102574.59;5096773;28;20071;-52
2021/12/21 03:09:36;;;;;;;28.73;11.45;;;;;;;5.47;100.00;102582.09;5097207;28;20115;-52
2021/12/21 03:12:09;;;;;;;32.72;11.90;;;;;;;5.46;100.00;102580.41;5097125;28;20032;-50
2021/12/21 03:14:35;;;;;;;35.42;13.57;;;;;;;5.44;100.00;102582.31;5079049;28;20116;-53
2021/12/21 03:17:00;;;;;;;29.50;12.40;;;;;;;5.45;100.00;102581.34;5097282;28;20028;-51
2021/12/21 03:19:26;;;;;;;27.92;11.77;;;;;;;5.39;100.00;102580.00;5097975;28;20051;-51
2021/12/21 03:21:53;;;;;;;24.42;11.82;;;;;;;5.36;100.00;102574.13;5079240;28;20453;-50
2021/12/21 03:24:18;;;;;;;33.37;12.03;;;;;;;5.35;100.00;102567.13;5096931;28;20036;-50
2021/12/21 03:26:44;;;;;;;28.45;12.07;;;;;;;5.34;100.00;102576.88;5097087;28;20085;-53
2021/12/21 03:29:09;;;;;;;28.23;12.50;;;;;;;5.39;100.00;102574.72;5078570;28;20047;-50
2021/12/21 03:31:35;;;;;;;25.83;11.43;;;;;;;5.44;100.00;102571.72;5097068;28;20140;-52
2021/12/21 03:34:01;;;;;;;26.13;9.88;;;;;;;5.34;100.00;102576.03;5078148;28;20035;-52
2021/12/21 03:36:27;;;;;;;29.10;11.15;;;;;;;5.34;100.00;102576.03;5096635;28;20028;-53
2021/12/21 03:39:06;;;;;;;40.90;13.57;;;;;;;5.29;100.00;102574.56;5096947;28;20047;-56
2021/12/21 03:41:44;;;;;;;32.63;12.88;;;;;;;5.28;100.00;102564.91;5096914;28;20043;-49
2021/12/21 03:44:10;;;;;;;33.80;12.95;;;;;;;5.23;100.00;102575.03;5097088;28;20119;-53
2021/12/21 03:46:44;;;;;;;30.08;11.40;;;;;;;5.29;100.00;102576.41;5078139;28;20063;-52
2021/12/21 03:49:35;;;;;;;31.88;11.05;;;;;;;5.28;100.00;102572.88;5096152;28;20028;-55
2021/12/21 03:51:55;;;;;;;40.85;12.23;;;;;;;5.26;100.00;102574.81;5095924;28;20432;-53
2021/12/21 03:54:21;;;;;;;24.85;9.75;;;;;;;5.18;100.00;102571.91;5096324;28;20036;-51
2021/12/21 03:56:49;;;;;;;26.83;11.15;;;;;;;5.17;100.00;102575.53;5078483;28;20040;-52
2021/12/21 03:59:15;;;;;;;28.58;12.50;;;;;;;5.09;100.00;102564.66;5077971;28;20500;-53
2021/12/21 04:01:41;;;;;;;22.52;8.27;;;;;;;5.19;100.00;102556.81;5078064;28;20073;-51
2021/12/21 04:04:08;;;;;;;30.87;12.97;;;;;;;5.19;100.00;102573.59;5095975;28;20069;-53
2021/12/21 04:06:34;;;;;;;28.83;11.95;;;;;;;5.23;100.00;102569.75;5096435;28;20061;-54
2021/12/21 04:08:59;;;;;;;28.67;12.10;;;;;;;5.25;100.00;102582.91;5095829;28;20113;-52
2021/12/21 04:11:25;;;;;;;29.42;11.15;;;;;;;5.16;100.00;102571.19;5095584;28;20466;-51
2021/12/21 04:13:50;;;;;;;30.40;12.50;;;;;;;5.12;100.00;102573.22;5078073;28;20118;-52
2021/12/21 04:16:16;;;;;;;30.50;11.40;;;;;;;5.15;100.00;102582.75;5077686;28;20273;-54
2021/12/21 04:18:42;;;;;;;38.28;12.13;;;;;;;5.12;100.00;102572.38;5096132;28;20024;-48
2021/12/21 04:21:11;;;;;;;27.43;11.70;;;;;;;5.13;100.00;102579.38;5096010;28;20036;-51
2021/12/21 04:23:37;;;;;;;28.98;11.85;;;;;;;5.13;100.00;102579.38;5095434;28;20538;-52
2021/12/21 04:26:03;;;;;;;22.05;9.80;;;;;;;5.12;100.00;102573.22;5095431;28;20042;-56
2021/12/21 04:28:28;;;;;;;34.80;15.18;;;;;;;5.07;100.00;102569.22;5095431;28;20028;-53
2021/12/21 04:30:54;;;;;;;28.87;11.80;;;;;;;5.09;100.00;102564.66;5095290;28;20481;-54
2021/12/21 04:33:19;;;;;;;39.50;12.43;;;;;;;5.06;100.00;102559.56;5095508;28;20284;-50
2021/12/21 04:35:45;;;;;;;32.63;13.37;;;;;;;4.89;100.00;102561.69;5095479;28;20038;-50
2021/12/21 04:40:48;;;;;;;30.10;12.57;;;;;;;4.94;100.00;102559.53;5095488;28;20032;-53
2021/12/21 04:43:14;;;;;;;32.85;13.00;;;;;;;4.98;100.00;102560.16;5077795;28;20027;-51
2021/12/21 04:45:40;;;;;;;33.80;14.85;;;;;;;4.79;100.00;102550.94;5077366;28;20576;-53
2021/12/21 04:48:06;;;;;;;29.33;12.40;;;;;;;4.89;100.00;102561.69;5095693;28;20122;-51
2021/12/21 04:50:32;;;;;;;27.25;12.10;;;;;;;4.87;100.00;102558.31;5077003;28;20051;-51
2021/12/21 04:52:58;;;;;;;33.70;13.25;;;;;;;4.83;100.00;102559.50;5095742;28;20051;-51
2021/12/21 04:55:23;;;;;;;36.17;13.80;;;;;;;4.83;100.00;102551.53;5094897;28;20032;-50
2021/12/21 04:57:49;;;;;;;25.97;12.17;;;;;;;4.82;100.00;102552.50;5060292;28;20031;-56
2021/12/21 05:00:15;;;;;;;35.23;13.57;;;;;;;4.83;100.00;102554.19;5076766;28;20614;-54
2021/12/21 05:02:41;;;;;;;34.13;13.60;;;;;;;4.78;100.00;102541.31;5075793;28;20275;-55
2021/12/21 05:05:07;;;;;;;34.27;12.87;;;;;;;4.73;100.00;102544.28;5077396;28;20461;-55
2021/12/21 05:07:35;;;;;;;21.52;10.52;;;;;;;4.76;100.00;102542.38;5094627;28;20236;-55
2021/12/21 05:10:02;;;;;;;30.33;12.82;;;;;;;4.70;100.00;102543.66;5094560;28;20032;-53
2021/12/21 05:12:28;;;;;;;32.70;12.75;;;;;;;4.76;100.00;102547.66;5094673;28;20084;-54
2021/12/21 05:14:55;;;;;;;32.10;12.73;;;;;;;4.80;100.00;102549.13;5094527;28;20036;-55
2021/12/21 05:17:20;;;;;;;;;;;;;;;4.69;100.00;102544.63;5094751;28;20081;-54
2021/12/21 05:19:46;;;;;;;24.43;11.37;;;;;;;4.71;100.00;102550.66;5077084;28;19908;-53
2021/12/21 05:22:12;;;;;;;32.77;13.87;;;;;;;4.73;100.00;102554.88;5094582;28;20040;-52
2021/12/21 05:24:38;;;;;;;36.63;14.30;;;;;;;4.73;100.00;102554.06;5076111;28;20081;-53
2021/12/21 05:27:05;;;;;;;30.92;13.35;;;;;;;4.79;100.00;102558.03;5076318;28;20036;-55
2021/12/21 05:29:31;;;;;;;30.60;13.53;;;;;;;4.73;100.00;102552.25;5094173;28;20046;-56
2021/12/21 05:32:00;;;;;;;34.78;13.00;;;;;;;4.84;100.00;102561.19;5094213;28;20039;-53
2021/12/21 05:34:27;;;;;;;30.92;13.07;;;;;;;4.70;100.00;102555.13;5094939;28;20044;-51
2021/12/21 05:36:53;;;;;;;31.58;13.07;;;;;;;4.71;100.00;102548.84;5094692;28;20093;-55
2021/12/21 05:39:22;;;;;;;41.92;14.70;;;;;;;4.64;100.00;102547.63;5095116;28;20035;-50
2021/12/21 05:41:51;;;;;;;39.33;12.45;;;;;;;4.78;100.00;102559.84;5076059;28;20047;-50
2021/12/21 05:44:19;;;;;;;34.58;13.80;;;;;;;4.84;100.00;102561.19;5093895;28;20028;-55
2021/12/21 05:46:44;;;;;;;31.13;13.68;;;;;;;4.71;100.00;102554.16;5093914;28;20055;-55
2021/12/21 05:49:10;;;;;;;42.05;14.00;;;;;;;4.68;100.00;102549.09;5059422;28;20449;-53
2021/12/21 05:51:36;;;;;;;31.13;12.68;;;;;;;4.63;100.00;102561.84;5093988;28;20040;-55
2021/12/21 05:54:02;;;;;;;24.98;11.77;;;;;;;4.74;100.00;102558.41;5094441;28;20036;-54
2021/12/21 05:56:28;;;;;;;31.88;12.55;;;;;;;4.72;100.00;102555.84;5093772;28;20070;-53
2021/12/21 05:58:53;;;;;;;29.73;12.85;;;;;;;4.65;100.00;102551.97;5075710;28;20024;-51
2021/12/21 06:01:19;;;;;;;22.10;11.47;;;;;;;4.68;100.00;102554.41;5075732;28;20040;-54
2021/12/21 06:03:45;;;;;;;35.45;12.13;;;;;;;4.67;100.00;102552.69;5094232;28;20295;-54
2021/12/21 06:06:14;;;;;;;31.83;12.55;;;;;;;4.68;100.00;102551.75;5076161;28;20131;-53
2021/12/21 06:08:41;;;;;;;32.22;13.90;;;;;;;4.73;100.00;102551.41;5075832;28;20041;-53
2021/12/21 06:11:07;;;;;;;33.55;14.75;;;;;;;4.70;100.00;102539.22;5093579;28;20067;-53
2021/12/21 06:14:00;;;;;;;;;;;;;;;4.63;100.00;102540.66;5093678;28;20020;-51
2021/12/21 06:25:35;;;;;;;42.55;13.50;;;;;;;4.69;100.00;102542.84;5093588;28;20068;-50
2021/12/21 06:27:16;;;;;;;32.22;13.13;;;;;;;4.70;100.00;102543.66;5080145;28;20058;-51
2021/12/21 06:29:42;;;;;;;32.88;15.30;;;;;;;4.70;100.00;102541.00;5093420;28;20028;-52
2021/12/21 06:32:09;;;;;;;34.10;14.05;;;;;;;4.68;100.00;102548.22;5075199;28;20533;-53
2021/12/21 06:34:35;;;;;;;38.17;13.35;;;;;;;4.67;100.00;102546.53;5075199;28;20385;-54
2021/12/21 06:37:00;;;;;;;29.27;12.63;;;;;;;4.68;100.00;102549.09;5093252;28;20032;-53
2021/12/21 06:39:28;;;;;;;43.60;14.02;;;;;;;4.67;100.00;102549.19;5093314;28;20052;-53
2021/12/21 06:41:54;;;;;;;28.85;12.48;;;;;;;4.62;100.00;102554.00;5093092;28;20039;-54
2021/12/21 06:44:20;;;;;;;41.03;14.00;;;;;;;4.63;100.00;102548.59;5075475;28;20369;-50
2021/12/21 06:52:22;;;;;;;35.60;13.68;;;;;;;4.55;100.00;102559.75;5047043;28;20473;-54
2021/12/21 06:54:48;;;;;;;35.78;13.77;;;;;;;4.61;100.00;102553.13;5075540;28;20070;-53
2021/12/21 06:57:13;;;;;;;27.70;13.55;;;;;;;4.68;100.00;102553.53;5075834;28;20131;-54
2021/12/21 06:59:39;;;;;;;33.47;14.60;;;;;;;4.57;100.00;102544.59;5093397;28;20028;-51
2021/12/21 07:02:05;;;;;;;35.65;13.95;;;;;;;4.55;100.00;102549.16;5075415;28;20393;-52
2021/12/21 07:04:31;;;;;;;31.55;12.63;;;;;;;4.52;100.00;102552.03;5075607;28;20058;-51
2021/12/21 07:06:58;;;;;;;37.83;14.75;;;;;;;4.58;100.00;102548.06;5075511;28;20445;-51
2021/12/21 07:09:48;;;;;;;33.13;13.90;;;;;;;4.65;100.00;102549.31;5059607;28;20039;-51
2021/12/21 07:17:58;;;;;;;27.85;13.82;;;;;;;4.63;100.00;102550.38;5077397;28;20070;-50
2021/12/21 07:20:29;;;;;;;28.17;13.60;;;;;;;4.59;100.00;102557.72;5060105;28;20036;-52
2021/12/21 07:22:55;;;;;;;33.17;13.38;;;;;;;4.55;100.00;102562.41;5093233;28;20054;-53
2021/12/21 07:25:25;;;;;;;26.42;14.70;;;;;;;4.51;100.00;102562.72;5060082;28;20042;-52
2021/12/21 07:27:50;;;;;;;38.15;16.25;;;;;;;4.43;100.00;102558.00;5079204;28;20035;-51
2021/12/21 07:30:16;;;;;;;50.83;13.27;;;;;;;4.39;100.00;102557.41;5078555;28;20411;-54
2021/12/21 07:32:41;;;;;;;26.10;12.77;;;;;;;4.54;100.00;102557.22;5061549;28;20284;-53
2021/12/21 07:35:07;;;;;;;36.73;12.70;;;;;;;4.55;100.00;102566.84;5078697;28;20016;-50
2021/12/21 07:37:33;;;;;;;35.00;13.60;;;;;;;4.48;100.00;102568.25;5096355;28;20036;-51
2021/12/21 07:39:58;;;;;;;28.30;12.90;;;;;;;4.57;100.00;102570.22;5096317;28;20028;-51
2021/12/21 07:42:24;;;;;;;35.43;15.00;;;;;;;4.62;100.00;102570.75;5096826;28;20617;-56
2021/12/21 07:44:49;;;;;;;42.33;13.80;;;;;;;4.56;100.00;102564.09;5097442;28;20020;-48
2021/12/21 07:47:17;;;;;;;25.70;10.70;;;;;;;4.65;100.00;102564.38;5078129;28;20044;-57
2021/12/21 07:49:43;;;;;;;31.20;14.48;;;;;;;4.61;100.00;102571.69;5078741;28;20457;-54
2021/12/21 07:52:10;;;;;;;33.20;14.30;;;;;;;4.62;100.00;102565.47;5078496;28;20055;-50
2021/12/21 07:54:36;;;;;;;33.58;14.57;;;;;;;4.61;100.00;102563.72;5078481;28;20407;-56
2021/12/21 07:57:03;;;;;;;34.97;14.13;;;;;;;4.67;100.00;102563.31;5096484;28;20062;-50
2021/12/21 07:59:28;;;;;;;;;;;;;;;4.65;100.00;102570.53;5096519;28;20063;-55
2021/12/21 08:01:54;;;;;;;29.97;13.53;;;;;;;4.81;100.00;102569.38;5095715;28;20323;-53
2021/12/21 08:04:26;;;;;;;28.98;13.52;;;;;;;4.78;100.00;102577.56;5096323;28;20020;-51
2021/12/21 08:06:53;;;;;;;35.40;14.73;;;;;;;4.82;100.00;102576.34;5095910;28;20040;-52
2021/12/21 08:09:18;;;;;;;41.13;14.98;;;;;;;4.77;100.00;102581.16;5095723;28;20111;-50
2021/12/21 08:14:28;;;;;;;27.67;14.35;;;;;;;4.87;100.00;102588.31;5063280;28;20044;-50
2021/12/21 08:16:53;;;;;;;39.97;15.93;;;;;;;4.74;100.00;102588.38;5077742;28;20032;-52
2021/12/21 08:19:19;;;;;;;29.57;12.33;;;;;;;4.82;100.00;102577.22;5060987;28;20663;-50
2021/12/21 08:21:44;;;;;;;26.97;12.20;;;;;;;4.89;100.00;102582.91;5077678;28;20111;-53
2021/12/21 08:24:10;;;;;;;33.70;15.27;;;;;;;4.83;100.00;102584.22;5077745;28;20119;-53
2021/12/21 08:26:35;;;;;;;27.37;12.73;;;;;;;4.90;100.00;102574.00;5095735;28;20028;-52
2021/12/21 08:29:01;;;;;;;39.15;17.20;;;;;;;4.91;100.00;102585.44;5077729;28;20040;-53
2021/12/21 08:31:28;;;;;;;40.00;17.50;;;;;;;4.89;100.00;102593.53;5076911;28;20036;-54
2021/12/21 08:33:54;;;;;;;39.72;16.38;;;;;;;4.92;100.00;102590.63;5095286;28;20032;-49
2021/12/21 08:36:20;;;;;;;36.88;15.93;;;;;;;5.02;100.00;102599.56;5095103;28;20024;-53
2021/12/21 08:38:45;;;;;;;35.15;14.88;;;;;;;5.00;100.00;102596.19;5095522;28;20040;-56
2021/12/21 08:41:11;;;;;;;38.35;16.45;;;;;;;5.12;100.00;102607.69;5095346;28;20076;-54
2021/12/21 08:43:37;;;;;;;36.55;15.40;;;;;;;5.07;100.00;102595.72;5095613;28;20040;-54
2021/12/21 08:46:03;;;;;;;42.33;15.38;;;;;;;5.14;100.00;102595.16;5094920;28;20039;-53
2021/12/21 08:48:30;;;;;;;44.17;16.20;;;;;;;5.24;100.00;102597.13;5077537;28;20376;-56
2021/12/21 08:50:55;;;;;;;34.50;15.27;;;;;;;5.14;100.00;102600.47;5095088;28;20064;-54
2021/12/21 08:53:23;;;;;;;37.92;16.13;;;;;;;5.29;100.00;102605.56;5095655;28;20078;-54
2021/12/21 08:55:51;;;;;;;30.40;14.88;;;;;;;5.28;100.00;102604.72;5076835;28;20062;-51
2021/12/21 08:58:18;;;;;;;34.80;15.50;;;;;;;5.31;100.00;102611.59;5094628;28;20039;-52
2021/12/21 09:00:44;;;;;;;33.13;15.63;;;;;;;5.28;100.00;102607.38;5094831;28;20035;-52
2021/12/21 09:03:10;;;;;;;42.53;17.50;;;;;;;5.37;100.00;102612.94;5095128;28;20360;-53
2021/12/21 09:05:37;;;;;;;37.30;15.82;;;;;;;5.44;100.00;102617.69;5076600;28;20035;-52
2021/12/21 09:08:03;;;;;;;;;;;;;;;5.49;100.00;102619.13;5077060;28;20043;-50
2021/12/21 09:10:30;;;;;;;36.03;15.05;;;;;;;5.44;100.00;102606.22;5095042;28;20298;-53
2021/12/21 09:12:56;;;;;;;;;;;;;;;5.59;100.00;102613.00;5095101;28;20036;-53
2021/12/21 09:15:23;;;;;;;40.17;16.25;;;;;;;5.64;100.00;102609.13;5094254;28;19919;-53
2021/12/21 09:17:49;;;;;;;37.20;16.83;;;;;;;5.67;100.00;102608.88;5094427;28;20567;-54
2021/12/21 09:20:19;;;;;;;33.63;15.40;;;;;;;5.70;100.00;102606.00;5076289;28;20453;-50
2021/12/21 09:22:46;;;;;;;40.70;16.98;;;;;;;5.77;100.00;102601.91;5094558;28;20032;-55
2021/12/21 09:25:12;;;;;;;35.75;17.83;;;;;;;5.82;100.00;102607.72;5094931;28;20028;-53
2021/12/21 09:27:39;;;;;;;39.35;17.73;;;;;;;5.65;100.00;102601.06;5076107;28;20111;-51
2021/12/21 09:30:07;;;;;;;49.38;18.52;;;;;;;5.79;100.00;102599.97;5094987;28;20043;-49
2021/12/21 09:32:33;;;;;;;39.65;15.93;;;;;;;5.93;100.00;102598.91;5059431;28;20449;-55
2021/12/21 09:34:59;;;;;;;46.47;19.97;;;;;;;6.69;100.00;102605.31;5076303;28;20036;-55
2021/12/21 09:37:25;;;;;;;44.30;19.70;;;;;;;8.70;100.00;102600.53;5075758;28;20257;-59
2021/12/21 09:39:52;;;;;;;;;;;;;;;10.21;100.00;102602.56;5076743;28;20113;-53
2021/12/21 09:42:21;;;;;;;31.92;16.35;;;;;;;11.29;100.00;102600.91;5094250;28;19904;-55
2021/12/21 09:44:47;;;;;;;35.72;14.38;;;;;;;12.14;90.68;102607.41;5093755;28;20028;-49
2021/12/21 09:47:15;;;;;;;33.42;13.25;;;;;;;12.81;81.84;102603.84;5094197;28;20040;-53
2021/12/21 09:49:43;;;;;;;24.75;12.70;;;;;;;13.30;77.46;102600.28;5093601;28;20105;-53
2021/12/21 09:52:11;;;;;;;25.15;12.38;;;;;;;13.73;71.57;102604.59;5093487;28;20044;-51
2021/12/21 09:54:38;;;;;;;22.80;12.95;;;;;;;13.87;63.52;102611.94;5093675;28;20032;-52
2021/12/21 09:57:03;;;;;;;;;;;;;;;14.43;60.17;102610.16;5094533;28;20051;-56
2021/12/21 09:59:29;;;;;;;23.87;12.43;;;;;;;14.70;57.00;102611.47;5093763;28;19908;-56
2021/12/21 10:01:57;;;;;;;25.13;11.98;;;;;;;15.30;57.06;102600.88;5093525;28;20035;-56
2021/12/21 10:04:24;;;;;;;28.47;12.97;;;;;;;15.91;55.10;102594.50;5093782;28;20036;-53
2021/12/21 10:06:50;;;;;;;;;;;;;;;16.21;50.55;102601.69;5094493;28;20253;-54
2021/12/21 10:09:18;;;;;;;27.07;12.33;;;;;;;16.50;49.26;102594.53;5094768;28;19931;-57
2021/12/21 10:11:49;;;;;;;29.00;12.43;;;;;;;16.88;46.86;102596.94;5076734;28;20280;-50
2021/12/21 10:14:17;;;;;;;27.23;13.30;;;;;;;17.36;44.96;102602.75;5093738;28;20307;-56
2021/12/21 10:16:44;;;;;;;23.03;11.73;;;;;;;17.65;43.57;102603.53;5093278;28;20252;-54
2021/12/21 10:19:23;;;;;;;24.80;11.57;;;;;;;18.01;41.98;102605.19;5093523;28;20749;-55
2021/12/21 10:21:49;;;;;;;24.47;12.20;;;;;;;18.15;41.31;102615.03;5094247;28;20260;-55
2021/12/21 10:24:25;;;;;;;25.45;12.25;;;;;;;18.10;39.92;102609.41;5093661;28;20256;-57
2021/12/21 10:27:08;;;;;;;27.90;13.30;;;;;;;18.45;40.61;102611.16;5093336;28;20032;-56
2021/12/21 10:29:42;;;;;;;24.07;12.80;;;;;;;18.84;39.81;102616.81;5093440;28;20277;-55
2021/12/21 10:32:17;;;;;;;24.93;12.40;;;;;;;19.03;38.01;102613.31;5093727;28;20028;-56
2021/12/21 10:34:51;;;;;;;24.77;12.07;;;;;;;19.30;37.64;102602.44;5093674;28;20036;-55
2021/12/21 10:37:27;;;;;;;24.20;12.10;;;;;;;19.61;36.29;102605.50;5075766;28;20119;-55
2021/12/21 10:40:23;;;;;;;26.65;11.85;;;;;;;19.95;35.17;102597.28;5093963;28;20060;-55
2021/12/21 10:43:03;;;;;;;27.40;11.67;;;;;;;20.35;34.07;102592.44;5093958;28;20453;-56
2021/12/21 10:45:39;;;;;;;23.33;11.40;;;;;;;20.46;32.90;102599.06;5093393;28;20027;-55
2021/12/21 10:48:08;;;;;;;23.33;12.05;;;;;;;20.74;32.41;102603.25;5093488;28;20082;-55
2021/12/21 10:50:34;;;;;;;27.40;12.30;;;;;;;21.02;31.96;102596.59;5075251;28;20457;-55
2021/12/21 10:53:02;;;;;;;20.37;10.70;;;;;;;21.51;31.65;102593.16;5092922;28;20101;-56
2021/12/21 10:55:34;;;;;;;23.70;12.63;;;;;;;21.73;31.82;102588.09;5093419;28;20040;-54
2021/12/21 10:58:15;;;;;;;24.40;11.87;;;;;;;21.85;31.14;102584.63;5075907;28;20038;-55
2021/12/21 11:01:02;;;;;;;17.17;10.47;;;;;;;22.02;31.22;102579.38;5095337;28;20029;-56
2021/12/21 11:03:55;;;;;;;23.10;11.67;;;;;;;22.10;29.60;102562.69;5078895;28;20036;-54
2021/12/21 11:06:29;;;;;;;21.33;11.20;;;;;;;22.26;29.76;102566.66;5096856;28;20036;-54
2021/12/21 11:08:55;;;;;;;20.80;11.40;;;;;;;22.58;29.37;102562.81;5097345;28;20028;-56
2021/12/21 11:11:29;;;;;;;23.35;11.18;;;;;;;22.52;29.38;102563.78;5078605;28;20020;-56
2021/12/21 11:14:09;;;;;;;20.70;11.13;;;;;;;22.62;29.16;102564.03;5079237;28;20381;-56
2021/12/21 11:16:39;;;;;;;21.37;11.57;;;;;;;22.60;28.66;102555.25;5096546;28;20056;-54
2021/12/21 11:19:06;;;;;;;22.37;11.57;;;;;;;23.06;28.32;102560.97;5097111;28;20127;-55
2021/12/21 11:21:33;;;;;;;22.43;11.13;;;;;;;22.93;28.31;102559.31;5096886;28;20107;-54
2021/12/21 11:24:03;;;;;;;24.07;11.23;;;;;;;23.14;27.74;102557.84;5096416;28;20077;-51
2021/12/21 11:26:31;;;;;;;23.17;11.93;;;;;;;23.48;27.04;102555.34;5096787;28;20032;-57
2021/12/21 11:29:01;;;;;;;23.93;11.97;;;;;;;23.33;27.24;102542.22;5078518;28;20024;-56
2021/12/21 11:31:27;;;;;;;22.13;10.87;;;;;;;23.24;27.86;102549.06;5096401;28;20035;-55
2021/12/21 11:33:57;;;;;;;22.42;11.50;;;;;;;23.50;27.08;102552.38;5078656;28;20499;-51
2021/12/21 11:39:08;;;;;;;34.30;10.90;;;;;;;24.11;26.39;102551.94;5096599;28;20050;-57
2021/12/21 11:41:36;;;;;;;20.60;11.27;;;;;;;24.17;26.66;102550.94;5078538;28;20446;-55
2021/12/21 11:44:37;;;;;;;19.57;10.90;;;;;;;24.42;25.91;102546.16;5078328;28;20123;-54
2021/12/21 11:47:08;;;;;;;20.53;10.60;;;;;;;24.29;25.48;102536.38;5096379;28;20104;-55
2021/12/21 11:49:42;;;;;;;22.00;11.27;;;;;;;24.66;24.90;102544.06;5096364;28;20060;-55
2021/12/21 11:52:17;;;;;;;19.53;10.47;;;;;;;24.85;24.80;102536.47;5096449;28;20044;-54
2021/12/21 11:55:07;;;;;;;21.00;10.50;;;;;;;24.87;24.57;102542.53;5078636;28;20458;-55
2021/12/21 11:58:15;;;;;;;20.43;10.67;;;;;;;24.95;24.33;102540.44;5086993;28;20484;-55
2021/12/21 12:00:56;;;;;;;19.77;10.32;;;;;;;24.97;24.64;102528.16;5077997;28;20063;-53
2021/12/21 12:03:26;;;;;;;21.40;11.10;;;;;;;25.42;24.09;102533.66;5096154;28;20042;-56
2021/12/21 12:05:55;;;;;;;21.13;10.47;;;;;;;25.28;24.24;102536.75;5078534;28;20515;-53
2021/12/21 12:08:23;;;;;;;20.33;10.40;;;;;;;25.61;23.81;102521.31;5095870;28;20020;-56
2021/12/21 12:10:51;;;;;;;21.17;11.20;;;;;;;25.52;24.33;102520.09;5077264;28;20036;-55
2021/12/21 12:13:30;;;;;;;17.03;10.30;;;;;;;25.62;24.41;102522.97;5095598;28;20066;-52
2021/12/21 12:16:02;;;;;;;24.07;11.70;;;;;;;25.54;24.27;102517.13;5077840;28;20535;-54
2021/12/21 12:18:40;;;;;;;22.03;10.63;;;;;;;25.83;23.86;102517.69;5077795;28;20093;-52
2021/12/21 12:21:21;;;;;;;19.13;10.63;;;;;;;26.00;23.53;102516.75;5095439;28;20028;-55
2021/12/21 12:23:53;;;;;;;25.60;11.50;;;;;;;26.25;23.26;102516.19;5060652;28;20487;-54
2021/12/21 12:26:28;;;;;;;20.47;10.47;;;;;;;26.30;22.78;102508.00;5095540;28;20036;-56
2021/12/21 12:28:56;;;;;;;25.50;10.50;;;;;;;26.41;22.67;102511.66;5077980;28;20024;-55